createdAt,value
2023-01-23T00:02:11.751Z,0.23
2023-01-23T00:04:38.512Z,0.22
2023-01-23T00:07:05.708Z,0.20
2023-01-23T00:09:33.027Z,0.20
2023-01-23T00:12:00.854Z,0.22
2023-01-23T00:14:33.600Z,0.24
2023-01-23T00:17:00.479Z,0.25
2023-01-23T00:19:27.192Z,0.26
2023-01-23T00:21:53.837Z,0.25
2023-01-23T00:24:20.667Z,0.22
2023-01-23T00:26:47.340Z,0.22
2023-01-23T00:29:15.101Z,0.22
2023-01-23T00:31:41.859Z,0.22
2023-01-23T00:34:14.045Z,0.22
2023-01-23T00:36:42.698Z,0.22
2023-01-23T00:39:17.527Z,0.22
2023-01-23T00:41:45.503Z,0.21
2023-01-23T00:44:12.487Z,0.18
2023-01-23T00:46:39.483Z,0.15
2023-01-23T00:49:06.420Z,0.14
2023-01-23T00:51:33.697Z,0.14
2023-01-23T00:54:01.023Z,0.14
2023-01-23T00:56:28.032Z,0.14
2023-01-23T00:58:54.721Z,0.12
2023-01-23T01:01:22.333Z,0.09
2023-01-23T01:03:49.415Z,0.07
2023-01-23T01:06:16.120Z,0.06
2023-01-23T01:08:43.015Z,0.05
2023-01-23T01:11:09.776Z,0.03
2023-01-23T01:13:36.759Z,0.02
2023-01-23T01:16:03.799Z,-0.01
2023-01-23T01:18:30.698Z,-0.02
2023-01-23T01:20:57.419Z,-0.02
2023-01-23T01:23:24.920Z,-0.03
2023-01-23T01:25:51.854Z,-0.05
2023-01-23T01:28:18.727Z,-0.05
2023-01-23T01:30:47.715Z,-0.04
2023-01-23T01:33:14.758Z,-0.03
2023-01-23T01:35:41.741Z,-0.02
2023-01-23T01:38:09.261Z,0.00
2023-01-23T01:40:38.218Z,-0.02
2023-01-23T01:43:15.158Z,-0.03
2023-01-23T01:46:07.077Z,-0.04
2023-01-23T01:48:58.756Z,-0.05
2023-01-23T01:51:35.549Z,-0.04
2023-01-23T01:54:24.555Z,-0.05
2023-01-23T01:57:02.002Z,-0.06
2023-01-23T01:59:30.734Z,-0.08
2023-01-23T02:02:04.302Z,-0.10
2023-01-23T02:04:33.439Z,-0.11
2023-01-23T02:07:00.751Z,-0.11
2023-01-23T02:09:27.902Z,-0.10
2023-01-23T02:11:55.677Z,-0.10
2023-01-23T02:14:25.167Z,-0.11
2023-01-23T02:16:52.340Z,-0.11
2023-01-23T02:19:44.942Z,-0.12
2023-01-23T02:22:36.906Z,-0.15
2023-01-23T02:25:15.922Z,-0.16
2023-01-23T02:27:44.011Z,-0.16
2023-01-23T02:30:11.573Z,-0.16
2023-01-23T02:32:38.479Z,-0.18
2023-01-23T02:35:10.276Z,-0.18
2023-01-23T02:37:37.538Z,-0.16
2023-01-23T02:40:06.961Z,-0.14
2023-01-23T02:42:34.151Z,-0.13
2023-01-23T02:45:00.887Z,-0.12
2023-01-23T02:47:28.985Z,-0.11
2023-01-23T02:49:56.053Z,-0.11
2023-01-23T02:52:23.176Z,-0.14
2023-01-23T02:54:50.097Z,-0.13
2023-01-23T02:57:16.654Z,-0.12
2023-01-23T03:00:02.352Z,-0.12
2023-01-23T03:02:30.896Z,-0.11
2023-01-23T03:04:57.981Z,-0.10
2023-01-23T03:07:28.919Z,-0.09
2023-01-23T03:09:55.897Z,-0.09
2023-01-23T03:12:22.824Z,-0.08
2023-01-23T03:14:53.710Z,-0.08
2023-01-23T03:17:21.416Z,-0.07
2023-01-23T03:19:48.464Z,-0.08
2023-01-23T03:22:15.614Z,-0.09
2023-01-23T03:24:42.660Z,-0.10
2023-01-23T03:27:09.538Z,-0.13
2023-01-23T03:29:58.884Z,-0.13
2023-01-23T03:32:25.628Z,-0.13
2023-01-23T03:34:52.885Z,-0.13
2023-01-23T03:37:20.091Z,-0.13
2023-01-23T03:40:06.219Z,-0.16
2023-01-23T03:42:34.239Z,-0.18
2023-01-23T03:45:01.746Z,-0.21
2023-01-23T03:47:30.286Z,-0.24
2023-01-23T03:49:56.979Z,-0.29
2023-01-23T03:52:23.730Z,-0.34
2023-01-23T03:54:51.220Z,-0.40
2023-01-23T03:57:18.561Z,-0.46
2023-01-23T03:59:48.099Z,-0.48
2023-01-23T04:02:16.094Z,-0.53
2023-01-23T04:04:43.260Z,-0.58
2023-01-23T04:07:09.971Z,-0.60
2023-01-23T04:09:37.610Z,-0.63
2023-01-23T04:12:04.817Z,-0.66
2023-01-23T04:14:36.903Z,-0.70
2023-01-23T04:17:04.856Z,-0.73
2023-01-23T04:19:32.041Z,-0.76
2023-01-23T04:21:58.819Z,-0.81
2023-01-23T04:24:25.862Z,-0.86
2023-01-23T04:26:52.738Z,-0.89
2023-01-23T04:29:19.783Z,-0.91
2023-01-23T04:31:46.552Z,-0.93
2023-01-23T04:34:13.472Z,-0.94
2023-01-23T04:36:40.515Z,-0.94
2023-01-23T04:39:07.512Z,-0.95
2023-01-23T04:41:36.667Z,-0.95
2023-01-23T04:44:21.397Z,-0.97
2023-01-23T04:47:03.275Z,-1.00
2023-01-23T04:49:30.022Z,-1.01
2023-01-23T04:51:57.062Z,-1.03
2023-01-23T04:54:24.801Z,-1.05
2023-01-23T04:56:52.187Z,-1.07
2023-01-23T04:59:20.040Z,-1.11
2023-01-23T05:01:46.743Z,-1.14
2023-01-23T05:04:13.509Z,-1.16
2023-01-23T05:06:41.099Z,-1.17
2023-01-23T05:09:07.735Z,-1.17
2023-01-23T05:11:46.413Z,-1.17
2023-01-23T05:14:13.327Z,-1.19
2023-01-23T05:16:40.698Z,-1.20
2023-01-23T05:19:29.041Z,-1.21
2023-01-23T05:21:56.564Z,-1.22
2023-01-23T05:24:23.221Z,-1.22
2023-01-23T05:26:50.088Z,-1.23
2023-01-23T05:29:18.017Z,-1.24
2023-01-23T05:31:51.424Z,-1.24
2023-01-23T05:34:36.595Z,-1.24
2023-01-23T05:37:04.265Z,-1.24
2023-01-23T05:39:33.765Z,-1.26
2023-01-23T05:42:00.653Z,-1.25
2023-01-23T05:44:46.353Z,-1.25
2023-01-23T05:47:20.560Z,-1.26
2023-01-23T05:49:48.503Z,-1.25
2023-01-23T05:52:15.348Z,-1.23
2023-01-23T05:54:44.302Z,-1.24
2023-01-23T05:57:11.486Z,-1.22
2023-01-23T05:59:56.680Z,-1.19
2023-01-23T06:02:42.241Z,-1.20
2023-01-23T06:05:44.254Z,-1.20
2023-01-23T06:08:15.935Z,-1.17
2023-01-23T06:10:45.932Z,-1.15
2023-01-23T06:13:12.783Z,-1.14
2023-01-23T06:15:39.609Z,-1.14
2023-01-23T06:22:59.825Z,-1.10
2023-01-23T06:25:27.557Z,-1.10
2023-01-23T06:27:55.963Z,-1.10
2023-01-23T06:30:23.694Z,-1.10
2023-01-23T06:32:50.865Z,-1.07
2023-01-23T06:35:20.821Z,-1.08
2023-01-23T06:37:47.607Z,-1.11
2023-01-23T06:40:16.570Z,-1.15
2023-01-23T06:42:50.912Z,-1.16
2023-01-23T06:45:18.672Z,-1.17
2023-01-23T06:47:55.365Z,-1.19
2023-01-23T06:50:22.950Z,-1.21
2023-01-23T06:52:49.923Z,-1.23
2023-01-23T06:55:21.992Z,-1.26
2023-01-23T06:57:49.463Z,-1.30
2023-01-23T07:00:16.507Z,-1.32
2023-01-23T07:02:45.492Z,-1.33
2023-01-23T07:05:12.739Z,-1.34
2023-01-23T07:07:44.587Z,-1.35
2023-01-23T07:10:11.435Z,-1.36
2023-01-23T07:12:38.848Z,-1.38
2023-01-23T07:15:08.758Z,-1.37
2023-01-23T07:17:38.635Z,-1.36
2023-01-23T07:20:06.093Z,-1.35
2023-01-23T07:22:33.678Z,-1.33
2023-01-23T07:25:00.569Z,-1.32
2023-01-23T07:27:27.614Z,-1.28
2023-01-23T07:29:54.374Z,-1.24
2023-01-23T07:32:21.472Z,-1.21
2023-01-23T07:34:48.396Z,-1.17
2023-01-23T07:37:15.078Z,-1.11
2023-01-23T07:39:41.641Z,-1.08
2023-01-23T07:42:08.877Z,-1.05
2023-01-23T07:44:35.702Z,-1.02
2023-01-23T07:56:12.855Z,-1.02
2023-01-23T07:58:39.534Z,-1.04
2023-01-23T08:01:08.453Z,-1.04
2023-01-23T08:03:35.168Z,-1.04
2023-01-23T10:14:03.211Z,-1.59
2023-01-23T10:16:57.188Z,-1.58
2023-01-23T10:19:40.371Z,-1.56
2023-01-23T10:22:35.788Z,-1.54
2023-01-23T10:25:11.806Z,-1.56
2023-01-23T10:27:41.717Z,-1.53
2023-01-23T10:30:26.055Z,-1.48
2023-01-23T10:32:55.966Z,-1.43
2023-01-23T10:35:39.769Z,-1.39
2023-01-23T10:38:26.491Z,-1.37
2023-01-23T10:41:12.346Z,-1.39
2023-01-23T10:43:40.346Z,-1.40
2023-01-23T10:46:12.354Z,-1.43
2023-01-23T10:48:46.225Z,-1.47
2023-01-23T10:51:26.380Z,-1.47
2023-01-23T10:54:04.608Z,-1.48
2023-01-23T10:56:33.781Z,-1.48
2023-01-23T10:59:01.230Z,-1.47
2023-01-23T11:01:32.924Z,-1.48
2023-01-23T11:04:11.108Z,-1.46
2023-01-23T11:06:38.456Z,-1.44
2023-01-23T11:09:17.758Z,-1.41
2023-01-23T11:11:58.271Z,-1.36
2023-01-23T11:14:25.359Z,-1.35
2023-01-23T11:17:24.017Z,-1.35
2023-01-23T11:19:53.069Z,-1.32
2023-01-23T11:22:33.040Z,-1.31
2023-01-23T11:25:01.444Z,-1.30
2023-01-23T11:27:30.521Z,-1.28
2023-01-23T11:30:16.196Z,-1.27
2023-01-23T11:32:58.912Z,-1.27
2023-01-23T11:35:48.214Z,-1.26
2023-01-23T11:38:19.768Z,-1.26
2023-01-23T11:40:51.291Z,-1.27
2023-01-23T11:43:17.847Z,-1.30
2023-01-23T11:46:03.895Z,-1.35
2023-01-23T11:48:52.250Z,-1.39
2023-01-23T11:51:29.492Z,-1.42
2023-01-23T11:54:34.420Z,-1.41
2023-01-23T11:57:13.639Z,-1.37
2023-01-23T12:00:06.821Z,-1.31
2023-01-23T12:02:54.548Z,-1.27
2023-01-23T12:05:26.995Z,-1.24
2023-01-23T12:08:15.526Z,-1.18
2023-01-23T12:18:40.805Z,-0.95
2023-01-23T12:21:22.956Z,-0.89
2023-01-23T12:23:56.000Z,-0.81
2023-01-23T12:26:22.875Z,-0.73
2023-01-23T12:29:02.422Z,-0.67
2023-01-23T12:31:32.503Z,-0.64
2023-01-23T12:34:02.524Z,-0.62
2023-01-23T12:36:44.174Z,-0.61
2023-01-23T12:39:43.926Z,-0.63
2023-01-23T12:42:14.546Z,-0.64
2023-01-23T12:45:15.367Z,-0.68
2023-01-23T12:47:45.166Z,-0.72
2023-01-23T12:50:36.032Z,-0.78
2023-01-23T12:53:10.104Z,-0.84
2023-01-23T12:55:47.800Z,-0.86
2023-01-23T12:58:16.861Z,-0.88
2023-01-23T13:01:09.021Z,-0.88
2023-01-23T13:03:54.548Z,-0.88
2023-01-23T13:06:25.140Z,-0.88
2023-01-23T13:09:05.461Z,-0.87
2023-01-23T13:11:42.634Z,-0.85
2023-01-23T13:14:32.781Z,-0.82
2023-01-23T13:17:04.265Z,-0.77
2023-01-23T13:19:50.767Z,-0.76
2023-01-23T13:22:27.237Z,-0.75
2023-01-23T13:25:12.808Z,-0.75
2023-01-23T13:28:00.048Z,-0.73
2023-01-23T13:30:27.293Z,-0.72
2023-01-23T13:33:01.047Z,-0.71
2023-01-23T13:35:40.279Z,-0.69
2023-01-23T13:38:34.925Z,-0.67
2023-01-23T13:41:04.852Z,-0.65
2023-01-23T13:43:52.386Z,-0.64
2023-01-23T13:46:32.538Z,-0.63
2023-01-23T18:16:10.363Z,-3.30
2023-01-23T18:18:39.529Z,-3.34
2023-01-23T18:21:11.913Z,-3.33
2023-01-23T18:23:39.237Z,-3.34
2023-01-23T18:26:14.762Z,-3.34
2023-01-23T18:28:44.679Z,-3.29
2023-01-23T18:31:16.358Z,-3.29
2023-01-23T18:34:17.285Z,-3.32
2023-01-23T18:37:11.021Z,-3.33
2023-01-23T18:40:12.768Z,-3.34
2023-01-23T18:42:42.526Z,-3.35
2023-01-23T18:45:13.866Z,-3.33
2023-01-23T18:47:42.378Z,-3.32
2023-01-23T18:50:14.838Z,-3.30
2023-01-23T18:52:54.479Z,-3.30
2023-01-23T18:55:44.496Z,-3.32
2023-01-23T18:58:43.762Z,-3.35
2023-01-23T19:01:32.171Z,-3.37
2023-01-23T19:03:59.507Z,-3.36
2023-01-23T19:06:26.707Z,-3.38
2023-01-23T19:08:55.555Z,-3.41
2023-01-23T19:11:40.206Z,-3.43
2023-01-23T19:14:10.651Z,-3.45
2023-01-23T19:16:54.174Z,-3.48
2023-01-23T19:19:43.904Z,-3.51
2023-01-23T19:22:11.606Z,-3.52
2023-01-23T19:24:39.236Z,-3.52
2023-01-23T19:27:35.825Z,-3.53
2023-01-23T19:30:04.259Z,-3.57
2023-01-23T19:32:33.481Z,-3.58
2023-01-23T19:35:13.400Z,-3.59
2023-01-23T19:37:41.315Z,-3.60
2023-01-23T19:40:10.177Z,-3.62
2023-01-23T19:42:52.306Z,-3.62
2023-01-23T19:45:28.432Z,-3.62
2023-01-23T19:48:02.439Z,-3.61
2023-01-23T19:50:30.107Z,-3.58
2023-01-23T19:52:59.723Z,-3.59
2023-01-23T19:55:30.512Z,-3.59
2023-01-23T19:57:57.604Z,-3.61
2023-01-23T20:00:30.480Z,-3.63
2023-01-23T20:02:58.265Z,-3.65
2023-01-23T20:05:25.663Z,-3.65
2023-01-23T20:07:54.163Z,-3.63
2023-01-23T20:10:21.962Z,-3.62
2023-01-23T22:41:37.152Z,-3.58
2023-01-23T22:44:04.441Z,-3.59
2023-01-23T22:46:31.761Z,-3.59
2023-01-23T22:48:58.504Z,-3.61
2023-01-23T22:51:29.754Z,-3.61
2023-01-23T22:53:57.356Z,-3.60
2023-01-23T22:56:24.747Z,-3.59
2023-01-23T22:58:52.609Z,-3.57
2023-01-23T23:01:19.732Z,-3.54
2023-01-23T23:03:46.631Z,-3.50
2023-01-23T23:06:15.222Z,-3.47
2023-01-23T23:08:45.090Z,-3.42
2023-01-23T23:11:18.514Z,-3.35
2023-01-23T23:13:45.643Z,-3.27
2023-01-23T23:16:21.602Z,-3.17
2023-01-23T23:18:50.498Z,-3.06
2023-01-23T23:21:19.138Z,-2.96
2023-01-23T23:23:46.242Z,-2.86
2023-01-23T23:26:13.326Z,-2.76
2023-01-23T23:28:42.395Z,-2.66
2023-01-23T23:31:09.254Z,-2.59
2023-01-23T23:33:36.042Z,-2.52
2023-01-23T23:36:02.800Z,-2.49
2023-01-23T23:38:29.669Z,-2.45
2023-01-23T23:40:57.656Z,-2.39
2023-01-23T23:43:25.910Z,-2.34
2023-01-23T23:45:56.494Z,-2.29
2023-01-23T23:48:23.471Z,-2.23
2023-01-23T23:50:50.190Z,-2.18
2023-01-23T23:53:17.463Z,-2.13
2023-01-23T23:55:44.720Z,-2.09
2023-01-23T23:58:11.819Z,-2.06
